YCUR weather

Cabramurra Airport
Cabramurra Township, New South Wales, Australia

Public forecast

Using degrees Celsius for public forecast. Weather courtesy of forecast.io.

Closest aviation weather report (METAR) to Cabramurra Airport

Closest report is Cooma Snowy Mountains Airport, 36.0 nm (66.7 km) SE. Retrieved 2020/04/04 21:00 UTC (18 minutes ago):

YCOM 042100Z AUTO 31020KT 9999 // SCT115 07/M01 Q1008

Closest aviation forecast (TAF) to Cabramurra Airport

Closest forecast is Canberra International Airport, 54.0 nm (100.1 km) NE. Retrieved 2020/04/04 18:00 UTC (3 hours ago):

TAF YSCB 041652Z 0418/0518 33014KT 9999 -SHRA BKN030 FM042200 29018G30KT 9999 SCT040 FM051000 30015KT 9999 -SHRA SCT020 BKN030